createdAt,value
2018-10-05T00:01:31.567Z,3.10
2018-10-05T00:03:59.495Z,3.10
2018-10-05T00:06:27.485Z,3.00
2018-10-05T00:08:55.205Z,3.10
2018-10-05T00:11:23.245Z,3.00
2018-10-05T00:13:51.473Z,3.00
2018-10-05T00:16:19.609Z,3.00
2018-10-05T00:18:47.504Z,3.00
2018-10-05T00:21:15.652Z,2.90
2018-10-05T00:23:43.624Z,2.90
2018-10-05T00:26:11.656Z,2.80
2018-10-05T00:28:39.908Z,2.80
2018-10-05T00:31:07.945Z,2.80
2018-10-05T00:33:36.140Z,2.80
2018-10-05T00:36:04.007Z,2.80
2018-10-05T00:38:31.850Z,2.70
2018-10-05T00:41:00.698Z,2.70
2018-10-05T00:43:29.603Z,2.70
2018-10-05T00:45:57.434Z,2.70
2018-10-05T00:48:25.458Z,2.70
2018-10-05T00:50:53.594Z,2.70
2018-10-05T00:53:21.585Z,2.70
2018-10-05T00:55:49.486Z,2.70
2018-10-05T00:58:17.191Z,2.70
2018-10-05T01:00:45.062Z,2.70
2018-10-05T01:03:12.962Z,2.70
2018-10-05T01:05:40.801Z,2.70
2018-10-05T01:08:08.591Z,2.70
2018-10-05T01:10:36.491Z,2.70
2018-10-05T01:13:05.197Z,2.70
2018-10-05T01:15:33.251Z,2.70
2018-10-05T01:18:01.008Z,2.70
2018-10-05T01:20:28.808Z,2.70
2018-10-05T01:22:56.718Z,2.70
2018-10-05T01:25:24.454Z,2.60
2018-10-05T01:27:52.311Z,2.60
2018-10-05T01:30:20.237Z,2.60
2018-10-05T01:32:48.442Z,2.60
2018-10-05T01:35:16.188Z,2.50
2018-10-05T01:37:44.025Z,2.50
2018-10-05T01:40:11.958Z,2.50
2018-10-05T01:42:39.967Z,2.50
2018-10-05T01:45:07.828Z,2.50
2018-10-05T01:47:35.627Z,2.40
2018-10-05T01:50:03.561Z,2.30
2018-10-05T01:52:31.880Z,2.40
2018-10-05T01:56:02.904Z,2.40
2018-10-05T01:58:30.675Z,2.40
2018-10-05T02:00:58.551Z,2.30
2018-10-05T02:03:26.531Z,2.30
2018-10-05T02:05:54.526Z,2.20
2018-10-05T02:08:22.473Z,2.20
2018-10-05T02:10:50.710Z,2.20
2018-10-05T02:13:18.539Z,2.20
2018-10-05T02:15:46.478Z,2.30
2018-10-05T02:18:14.348Z,2.20
2018-10-05T02:20:42.239Z,2.20
2018-10-05T02:23:10.077Z,2.20
2018-10-05T02:25:38.025Z,2.10
2018-10-05T02:28:06.025Z,2.10
2018-10-05T02:30:33.979Z,2.10
2018-10-05T02:33:02.195Z,2.10
2018-10-05T02:35:30.143Z,2.10
2018-10-05T02:37:57.984Z,2.10
2018-10-05T02:40:25.937Z,2.10
2018-10-05T02:42:53.824Z,2.10
2018-10-05T02:45:21.753Z,2.00
2018-10-05T02:47:49.560Z,2.00
2018-10-05T02:50:17.430Z,2.00
2018-10-05T02:52:45.315Z,2.00
2018-10-05T02:55:13.482Z,1.90
2018-10-05T02:57:41.369Z,1.90
2018-10-05T03:00:20.430Z,1.90
2018-10-05T03:02:48.312Z,1.80
2018-10-05T03:05:16.522Z,1.90
2018-10-05T03:07:44.510Z,1.90
2018-10-05T03:10:12.400Z,1.80
2018-10-05T03:12:40.413Z,1.90
2018-10-05T03:15:08.282Z,1.80
2018-10-05T03:17:36.583Z,1.80
2018-10-05T03:20:04.530Z,1.80
2018-10-05T03:22:32.393Z,1.80
2018-10-05T03:25:00.360Z,1.80
2018-10-05T03:27:28.430Z,1.80
2018-10-05T03:29:56.327Z,1.80
2018-10-05T03:32:24.467Z,1.80
2018-10-05T03:34:52.329Z,1.80
2018-10-05T03:37:20.311Z,1.70
2018-10-05T03:39:48.181Z,1.70
2018-10-05T03:42:16.072Z,1.70
2018-10-05T03:44:43.972Z,1.70
2018-10-05T03:47:11.987Z,1.70
2018-10-05T03:49:39.893Z,1.60
2018-10-05T03:52:07.746Z,1.60
2018-10-05T03:54:35.466Z,1.60
2018-10-05T03:57:05.769Z,1.60
2018-10-05T03:59:34.070Z,1.60
2018-10-05T04:02:01.998Z,1.60
2018-10-05T04:04:29.964Z,1.60
2018-10-05T04:06:57.831Z,1.60
2018-10-05T04:09:25.678Z,1.60
2018-10-05T04:11:53.774Z,1.60
2018-10-05T04:14:21.572Z,1.60
2018-10-05T04:16:49.410Z,1.60
2018-10-05T04:19:17.489Z,1.50
2018-10-05T04:21:45.787Z,1.50
2018-10-05T04:24:13.689Z,1.40
2018-10-05T04:26:41.675Z,1.40
2018-10-05T04:29:09.480Z,1.30
2018-10-05T04:31:37.571Z,1.30
2018-10-05T04:34:05.791Z,1.30
2018-10-05T04:36:34.187Z,1.30
2018-10-05T04:39:02.052Z,1.30
2018-10-05T04:41:29.970Z,1.30
2018-10-05T04:43:58.059Z,1.30
2018-10-05T04:46:26.107Z,1.30
2018-10-05T04:48:54.084Z,1.30
2018-10-05T04:51:21.973Z,1.30
2018-10-05T04:53:50.022Z,1.30
2018-10-05T04:56:18.105Z,1.30
2018-10-05T04:58:45.887Z,1.30
2018-10-05T05:01:13.905Z,1.30
2018-10-05T05:03:42.000Z,1.30
2018-10-05T05:06:09.980Z,1.30
2018-10-05T05:08:37.641Z,1.20
2018-10-05T05:11:05.690Z,1.20
2018-10-05T05:13:33.559Z,1.30
2018-10-05T05:16:01.772Z,1.30
2018-10-05T05:18:29.713Z,1.20
2018-10-05T05:20:57.565Z,1.20
2018-10-05T05:23:25.554Z,1.20
2018-10-05T05:25:53.517Z,1.20
2018-10-05T05:28:21.406Z,1.20
2018-10-05T05:30:49.225Z,1.30
2018-10-05T05:33:16.959Z,1.30
2018-10-05T05:35:45.322Z,1.30
2018-10-05T05:38:13.290Z,1.30
2018-10-05T05:40:41.285Z,1.30
2018-10-05T05:43:09.354Z,1.30
2018-10-05T05:45:37.412Z,1.30
2018-10-05T05:48:05.716Z,1.40
2018-10-05T05:50:33.612Z,1.30
2018-10-05T05:53:01.930Z,1.30
2018-10-05T05:55:30.370Z,1.40
2018-10-05T05:57:58.927Z,1.40
2018-10-05T06:00:27.152Z,1.40
2018-10-05T06:02:55.452Z,1.40
2018-10-05T06:05:23.705Z,1.50
2018-10-05T06:07:52.406Z,1.50
2018-10-05T06:10:20.607Z,1.60
2018-10-05T06:12:48.609Z,1.60
2018-10-05T06:15:16.766Z,1.60
2018-10-05T06:17:44.870Z,1.60
2018-10-05T06:20:12.813Z,1.60
2018-10-05T06:22:41.175Z,1.70
2018-10-05T06:25:09.499Z,1.70
2018-10-05T06:27:38.136Z,1.80
2018-10-05T06:30:07.312Z,1.80
2018-10-05T06:32:35.281Z,1.80
2018-10-05T06:35:03.238Z,1.90
2018-10-05T06:37:31.585Z,1.90
2018-10-05T06:39:59.897Z,1.90
2018-10-05T06:42:28.438Z,2.00
2018-10-05T06:44:56.663Z,2.00
2018-10-05T06:47:25.317Z,2.10
2018-10-05T06:49:53.572Z,2.20
2018-10-05T06:52:22.381Z,2.20
2018-10-05T06:54:51.102Z,2.20
2018-10-05T06:57:19.275Z,2.20
2018-10-05T06:59:47.486Z,2.30
2018-10-05T07:02:15.583Z,2.40
2018-10-05T07:04:43.589Z,2.40
2018-10-05T07:07:13.887Z,2.50
2018-10-05T07:09:42.037Z,2.70
2018-10-05T07:12:10.695Z,3.10
2018-10-05T07:14:38.637Z,3.40
2018-10-05T07:17:07.197Z,3.60
2018-10-05T07:19:35.347Z,3.90
2018-10-05T07:22:03.315Z,4.10
2018-10-05T07:24:31.512Z,4.40
2018-10-05T07:26:59.866Z,4.60
2018-10-05T07:29:27.890Z,4.90
2018-10-05T07:31:56.127Z,5.20
2018-10-05T07:34:25.545Z,5.40
2018-10-05T07:36:53.558Z,5.60
2018-10-05T07:39:21.575Z,5.90
2018-10-05T07:41:49.694Z,6.20
2018-10-05T07:44:17.711Z,6.40
2018-10-05T07:46:45.865Z,6.60
2018-10-05T07:49:13.860Z,6.90
2018-10-05T07:51:41.848Z,7.10
2018-10-05T07:54:10.183Z,7.40
2018-10-05T07:56:38.227Z,7.60
2018-10-05T07:59:06.191Z,7.80
2018-10-05T08:01:35.201Z,8.00
2018-10-05T08:04:03.130Z,8.30
2018-10-05T08:06:31.288Z,8.50
2018-10-05T08:08:59.177Z,8.70
2018-10-05T08:11:27.086Z,8.90
2018-10-05T08:13:55.111Z,9.10
2018-10-05T08:16:23.087Z,9.40
2018-10-05T08:18:51.459Z,9.60
2018-10-05T08:21:20.405Z,9.80
2018-10-05T08:23:48.853Z,10.20
2018-10-05T08:26:16.846Z,10.50
2018-10-05T08:28:44.975Z,10.80
2018-10-05T08:31:13.222Z,11.00
2018-10-05T08:33:41.126Z,11.20
2018-10-05T08:36:09.219Z,11.40
2018-10-05T08:38:37.256Z,11.60
2018-10-05T08:41:05.385Z,11.90
2018-10-05T08:43:33.358Z,12.10
2018-10-05T08:46:01.654Z,12.30
2018-10-05T08:48:29.939Z,12.50
2018-10-05T08:50:57.757Z,12.60
2018-10-05T08:53:25.719Z,12.80
2018-10-05T08:55:54.898Z,13.00
2018-10-05T08:58:22.810Z,13.20
2018-10-05T09:00:51.318Z,13.40
2018-10-05T09:03:19.094Z,13.60
2018-10-05T09:05:47.073Z,13.80
2018-10-05T09:08:15.107Z,14.00
2018-10-05T09:10:43.022Z,14.20
2018-10-05T09:13:10.852Z,14.50
2018-10-05T09:15:38.943Z,14.70
2018-10-05T09:18:06.788Z,14.80
2018-10-05T09:20:34.565Z,15.00
2018-10-05T09:23:02.495Z,15.30
2018-10-05T09:25:30.487Z,15.40
2018-10-05T09:27:58.795Z,15.50
2018-10-05T09:30:26.720Z,15.60
2018-10-05T09:32:54.613Z,15.80
2018-10-05T09:35:22.443Z,16.00
2018-10-05T09:37:50.565Z,16.20
2018-10-05T09:40:18.824Z,16.30
2018-10-05T09:42:47.748Z,16.40
2018-10-05T09:45:15.903Z,16.50
2018-10-05T09:47:43.839Z,16.60
2018-10-05T09:50:11.551Z,16.80
2018-10-05T09:52:39.614Z,16.90
2018-10-05T09:55:07.743Z,17.00
2018-10-05T09:57:35.759Z,17.20
2018-10-05T10:00:03.965Z,17.30
2018-10-05T10:02:37.440Z,17.40
2018-10-05T10:05:05.462Z,17.50
2018-10-05T10:07:33.387Z,17.60
2018-10-05T10:10:01.843Z,17.60
2018-10-05T10:12:29.869Z,17.60
2018-10-05T10:14:58.547Z,17.70
2018-10-05T10:17:26.763Z,17.90
2018-10-05T10:19:55.351Z,18.10
2018-10-05T10:22:23.229Z,18.20
2018-10-05T10:24:51.417Z,18.40
2018-10-05T10:27:19.922Z,18.40
2018-10-05T10:29:48.021Z,18.60
2018-10-05T10:32:16.023Z,18.60
2018-10-05T10:34:44.199Z,18.60
2018-10-05T10:37:12.360Z,18.70
2018-10-05T10:39:40.648Z,18.70
2018-10-05T10:42:08.790Z,18.70
2018-10-05T10:44:36.611Z,18.80
2018-10-05T10:47:04.468Z,18.80
2018-10-05T10:49:32.470Z,18.90
2018-10-05T10:52:01.385Z,18.90
2018-10-05T10:54:30.381Z,19.00
2018-10-05T10:56:58.683Z,19.00
2018-10-05T10:59:26.669Z,19.10
2018-10-05T11:01:55.426Z,19.20
2018-10-05T11:04:23.584Z,19.30
2018-10-05T11:06:54.678Z,19.40
2018-10-05T11:09:22.726Z,19.50
2018-10-05T11:11:50.622Z,19.60
2018-10-05T11:14:18.765Z,19.60
2018-10-05T11:16:47.174Z,19.50
2018-10-05T11:19:15.216Z,19.50
2018-10-05T11:21:43.275Z,19.50
2018-10-05T11:24:11.801Z,19.60
2018-10-05T11:26:39.729Z,19.70
2018-10-05T11:29:07.752Z,19.80
2018-10-05T11:31:36.843Z,19.90
2018-10-05T11:34:04.871Z,19.80
2018-10-05T11:36:33.580Z,19.80
2018-10-05T11:39:01.634Z,19.80
2018-10-05T11:41:29.856Z,19.90
2018-10-05T11:43:58.059Z,19.90
2018-10-05T11:46:26.248Z,20.00
2018-10-05T11:48:54.610Z,20.00
2018-10-05T11:51:22.618Z,20.10
2018-10-05T11:53:50.817Z,20.10
2018-10-05T11:56:19.279Z,20.10
2018-10-05T11:58:47.176Z,20.00
2018-10-05T12:01:15.653Z,20.00
2018-10-05T12:03:43.950Z,20.00
2018-10-05T12:06:12.200Z,20.00
2018-10-05T12:08:40.391Z,20.00
2018-10-05T12:11:08.369Z,20.10
2018-10-05T12:13:36.560Z,20.20
2018-10-05T12:16:04.543Z,20.30
2018-10-05T12:18:32.666Z,20.30
2018-10-05T12:21:00.745Z,20.20
2018-10-05T12:23:28.854Z,20.20
2018-10-05T12:25:57.115Z,20.30
2018-10-05T12:28:25.207Z,20.30
2018-10-05T12:30:53.379Z,20.50
2018-10-05T12:33:21.643Z,20.50
2018-10-05T12:35:50.003Z,20.50
2018-10-05T12:38:18.294Z,20.50
2018-10-05T12:40:46.199Z,20.50
2018-10-05T12:43:14.320Z,20.50
2018-10-05T12:45:42.326Z,20.40
2018-10-05T12:48:10.342Z,20.40
2018-10-05T12:50:38.388Z,20.40
2018-10-05T12:53:06.644Z,20.40
2018-10-05T12:55:34.794Z,20.50
2018-10-05T12:58:03.902Z,20.50
2018-10-05T13:00:32.088Z,20.50
2018-10-05T13:03:00.481Z,20.60
2018-10-05T13:05:28.508Z,20.60
2018-10-05T13:07:56.534Z,20.70
2018-10-05T13:10:25.070Z,20.60
2018-10-05T13:12:53.011Z,20.70
2018-10-05T13:15:20.869Z,20.70
2018-10-05T13:17:48.987Z,20.70
2018-10-05T13:20:17.104Z,20.70
2018-10-05T13:22:45.104Z,20.70
2018-10-05T13:25:13.103Z,20.70
2018-10-05T13:27:41.130Z,20.60
2018-10-05T13:30:09.814Z,20.70
2018-10-05T13:32:37.727Z,20.70
2018-10-05T13:35:05.950Z,20.70
2018-10-05T13:37:34.333Z,20.70
2018-10-05T13:40:02.357Z,20.70
2018-10-05T13:42:30.787Z,20.80
2018-10-05T13:44:59.041Z,20.80
2018-10-05T13:47:27.244Z,20.80
2018-10-05T13:49:55.814Z,20.80
2018-10-05T13:52:24.122Z,20.70
2018-10-05T13:54:52.368Z,20.70
2018-10-05T13:57:20.455Z,20.70
2018-10-05T13:59:48.501Z,20.70
2018-10-05T14:02:17.390Z,20.70
2018-10-05T14:04:45.471Z,20.60
2018-10-05T14:07:13.693Z,20.60
2018-10-05T14:09:41.544Z,20.60
2018-10-05T14:12:09.329Z,20.60
2018-10-05T14:14:37.322Z,20.60
2018-10-05T14:17:05.979Z,20.60
2018-10-05T14:19:34.008Z,20.50
2018-10-05T14:22:02.725Z,20.50
2018-10-05T14:24:31.551Z,20.50
2018-10-05T14:27:01.105Z,20.50
2018-10-05T14:29:29.244Z,20.50
2018-10-05T14:31:58.400Z,20.40
2018-10-05T14:34:26.414Z,20.30
2018-10-05T14:36:54.754Z,20.30
2018-10-05T14:39:22.890Z,20.20
2018-10-05T14:41:50.941Z,20.20
2018-10-05T14:44:19.370Z,20.20
2018-10-05T14:46:47.482Z,20.20
2018-10-05T14:49:15.964Z,20.10
2018-10-05T14:51:44.121Z,20.00
2018-10-05T14:54:13.082Z,19.90
2018-10-05T14:56:40.973Z,19.90
2018-10-05T14:59:08.838Z,19.80
2018-10-05T15:01:37.556Z,19.80
2018-10-05T15:04:05.618Z,19.70
2018-10-05T15:06:34.060Z,19.60
2018-10-05T15:09:02.027Z,19.60
2018-10-05T15:11:29.909Z,19.60
2018-10-05T15:13:58.104Z,19.60
2018-10-05T15:16:26.145Z,19.50
2018-10-05T15:18:54.048Z,19.50
2018-10-05T15:21:22.410Z,19.40
2018-10-05T15:23:50.782Z,19.10
2018-10-05T15:26:19.070Z,19.00
2018-10-05T15:28:46.901Z,18.90
2018-10-05T15:31:14.933Z,18.80
2018-10-05T15:33:43.328Z,18.80
2018-10-05T15:36:11.617Z,18.70
2018-10-05T15:38:39.600Z,18.60
2018-10-05T15:41:07.685Z,18.30
2018-10-05T15:43:35.622Z,18.20
2018-10-05T15:46:06.431Z,17.90
2018-10-05T15:48:34.580Z,17.60
2018-10-05T15:51:03.089Z,17.20
2018-10-05T15:53:32.072Z,17.10
2018-10-05T15:56:00.219Z,16.90
2018-10-05T15:58:28.257Z,16.70
2018-10-05T16:00:56.466Z,16.60
2018-10-05T16:03:26.480Z,16.40
2018-10-05T16:05:56.042Z,16.20
2018-10-05T16:08:24.562Z,16.00
2018-10-05T16:10:52.492Z,15.70
2018-10-05T16:13:22.321Z,15.50
2018-10-05T16:15:50.934Z,15.30
2018-10-05T16:18:18.929Z,15.10
2018-10-05T16:20:46.888Z,14.90
2018-10-05T16:23:15.056Z,14.70
2018-10-05T16:25:43.182Z,14.60
2018-10-05T16:28:11.572Z,14.40
2018-10-05T16:30:39.700Z,14.30
2018-10-05T16:33:07.494Z,14.20
2018-10-05T16:35:35.379Z,14.00
2018-10-05T16:38:03.140Z,13.80
2018-10-05T16:40:31.069Z,13.70
2018-10-05T16:42:59.121Z,13.50
2018-10-05T16:45:27.380Z,13.30
2018-10-05T16:47:55.376Z,13.20
2018-10-05T16:50:23.242Z,13.10
2018-10-05T16:52:51.118Z,12.90
2018-10-05T16:55:18.931Z,12.80
2018-10-05T16:57:47.150Z,12.60
2018-10-05T17:00:16.069Z,12.50
2018-10-05T17:02:44.003Z,12.30
2018-10-05T17:05:12.854Z,12.20
2018-10-05T17:07:41.351Z,12.10
2018-10-05T17:10:09.616Z,12.00
2018-10-05T17:12:37.656Z,11.90
2018-10-05T17:15:06.546Z,11.80
2018-10-05T17:17:34.702Z,11.60
2018-10-05T17:20:02.577Z,11.40
2018-10-05T17:22:30.360Z,11.30
2018-10-05T17:24:58.400Z,11.20
2018-10-05T17:27:26.413Z,11.10
2018-10-05T17:29:54.288Z,11.10
2018-10-05T17:32:22.160Z,11.00
2018-10-05T17:34:50.001Z,10.90
2018-10-05T17:37:18.814Z,10.80
2018-10-05T17:39:46.954Z,10.70
2018-10-05T17:42:15.105Z,10.60
2018-10-05T17:44:44.602Z,10.50
2018-10-05T17:47:12.805Z,10.40
2018-10-05T17:49:40.489Z,10.30
2018-10-05T17:52:09.170Z,10.20
2018-10-05T17:54:37.228Z,10.10
2018-10-05T17:57:05.228Z,10.00
2018-10-05T17:59:33.141Z,9.90
2018-10-05T18:02:01.313Z,9.80
2018-10-05T18:04:29.977Z,9.70
2018-10-05T18:06:58.345Z,9.60
2018-10-05T18:09:26.567Z,9.60
2018-10-05T18:11:55.024Z,9.50
2018-10-05T18:14:22.959Z,9.40
2018-10-05T18:16:51.049Z,9.30
2018-10-05T18:19:19.897Z,9.20
2018-10-05T18:21:48.264Z,9.20
2018-10-05T18:24:16.615Z,9.00
2018-10-05T18:26:44.673Z,8.90
2018-10-05T18:29:12.828Z,8.90
2018-10-05T18:31:40.763Z,8.80
2018-10-05T18:34:09.096Z,8.70
2018-10-05T18:36:45.092Z,8.70
2018-10-05T18:39:13.159Z,8.70
2018-10-05T18:41:41.195Z,8.60
2018-10-05T18:44:09.407Z,8.60
2018-10-05T18:46:38.363Z,8.50
2018-10-05T18:49:06.356Z,8.50
2018-10-05T18:51:35.324Z,8.40
2018-10-05T18:54:04.146Z,8.40
2018-10-05T18:56:43.598Z,8.30
2018-10-05T18:59:13.389Z,8.20
2018-10-05T19:01:42.188Z,8.10
2018-10-05T19:04:12.246Z,8.10
2018-10-05T19:06:42.322Z,8.00
2018-10-05T19:09:13.438Z,8.00
2018-10-05T19:11:45.493Z,7.90
2018-10-05T19:14:16.174Z,7.90
2018-10-05T19:16:44.831Z,7.80
2018-10-05T19:19:15.552Z,7.70
2018-10-05T19:21:44.109Z,7.60
2018-10-05T19:24:12.073Z,7.60
2018-10-05T19:26:40.561Z,7.60
2018-10-05T19:29:08.856Z,7.50
2018-10-05T19:31:37.539Z,7.40
2018-10-05T19:34:06.230Z,7.40
2018-10-05T19:36:35.195Z,7.40
2018-10-05T19:39:05.591Z,7.30
2018-10-05T19:41:34.655Z,7.30
2018-10-05T19:44:03.129Z,7.20
2018-10-05T19:46:31.724Z,7.20
2018-10-05T19:48:59.576Z,7.20
2018-10-05T19:51:28.316Z,7.10
2018-10-05T19:53:57.024Z,7.10
2018-10-05T19:56:25.521Z,7.00
2018-10-05T19:58:54.126Z,7.00
2018-10-05T20:01:23.337Z,7.00
2018-10-05T20:03:51.358Z,6.90
2018-10-05T20:06:19.614Z,7.00
2018-10-05T20:08:48.134Z,7.00
2018-10-05T20:11:16.599Z,6.90
2018-10-05T20:13:44.938Z,6.80
2018-10-05T20:16:13.304Z,6.80
2018-10-05T20:18:41.247Z,6.90
2018-10-05T20:21:09.837Z,7.00
2018-10-05T20:23:38.071Z,7.20
2018-10-05T20:26:05.855Z,7.30
2018-10-05T20:28:33.824Z,7.40
2018-10-05T20:31:02.117Z,7.40
2018-10-05T20:33:30.418Z,7.50
2018-10-05T20:36:00.296Z,7.50
2018-10-05T20:38:28.670Z,7.50
2018-10-05T20:40:56.740Z,7.50
2018-10-05T20:43:24.640Z,7.50
2018-10-05T20:45:53.101Z,7.40
2018-10-05T20:48:21.277Z,7.50
2018-10-05T20:50:49.246Z,7.40
2018-10-05T20:53:17.393Z,7.40
2018-10-05T20:55:45.466Z,7.40
2018-10-05T20:58:13.848Z,7.40
2018-10-05T21:00:41.882Z,7.30
2018-10-05T21:03:09.902Z,7.30
2018-10-05T21:05:38.253Z,7.30
2018-10-05T21:08:06.796Z,7.30
2018-10-05T21:10:34.945Z,7.30
2018-10-05T21:13:03.446Z,7.30
2018-10-05T21:15:32.006Z,7.30
2018-10-05T21:18:00.218Z,7.40
2018-10-05T21:20:29.260Z,7.40
2018-10-05T21:22:57.626Z,7.50
2018-10-05T21:25:26.320Z,7.50
2018-10-05T21:27:55.291Z,7.60
2018-10-05T21:30:23.120Z,7.90
2018-10-05T21:32:51.543Z,8.00
2018-10-05T21:35:19.472Z,8.20
2018-10-05T21:37:47.303Z,8.40
2018-10-05T21:40:15.393Z,8.90
2018-10-05T21:42:44.321Z,9.20
2018-10-05T21:45:12.645Z,9.30
2018-10-05T21:47:41.246Z,9.30
2018-10-05T21:50:09.382Z,9.20
2018-10-05T21:52:38.213Z,9.00
2018-10-05T21:55:06.246Z,8.90
2018-10-05T21:57:34.242Z,8.80
2018-10-05T22:00:02.635Z,8.80
2018-10-05T22:02:34.892Z,8.70
2018-10-05T22:05:04.029Z,8.60
2018-10-05T22:07:31.868Z,8.50
2018-10-05T22:10:00.243Z,8.50
2018-10-05T22:12:28.727Z,8.40
2018-10-05T22:14:56.784Z,8.40
2018-10-05T22:17:25.249Z,8.30
2018-10-05T22:19:53.952Z,8.30
2018-10-05T22:22:22.575Z,8.30
2018-10-05T22:24:50.601Z,8.40
2018-10-05T22:27:18.980Z,8.50
2018-10-05T22:29:47.466Z,8.50
2018-10-05T22:32:16.511Z,8.40
2018-10-05T22:34:44.692Z,8.40
2018-10-05T22:37:13.721Z,8.40
2018-10-05T22:39:41.753Z,8.40
2018-10-05T22:42:10.157Z,8.60
2018-10-05T22:44:38.480Z,8.70
2018-10-05T22:47:06.460Z,8.70
2018-10-05T22:49:34.779Z,9.00
2018-10-05T22:52:02.923Z,9.20
2018-10-05T22:54:30.719Z,9.30
2018-10-05T22:56:58.908Z,9.30
2018-10-05T22:59:26.925Z,9.30
2018-10-05T23:01:54.814Z,9.40
2018-10-05T23:04:22.632Z,9.60
2018-10-05T23:06:50.645Z,9.90
2018-10-05T23:09:18.387Z,10.10
2018-10-05T23:11:46.207Z,10.30
2018-10-05T23:14:14.923Z,10.60
2018-10-05T23:16:42.869Z,10.90
2018-10-05T23:19:10.817Z,11.10
2018-10-05T23:21:38.617Z,11.20
2018-10-05T23:24:06.736Z,11.20
2018-10-05T23:26:35.847Z,11.30
2018-10-05T23:29:03.953Z,11.20
2018-10-05T23:31:32.142Z,11.20
2018-10-05T23:34:00.107Z,11.20
2018-10-05T23:36:28.694Z,11.30
2018-10-05T23:38:56.669Z,11.30
2018-10-05T23:41:24.650Z,11.30
2018-10-05T23:43:52.557Z,11.20
2018-10-05T23:46:20.589Z,11.30
2018-10-05T23:48:48.347Z,11.30
2018-10-05T23:51:16.219Z,11.30
2018-10-05T23:53:44.368Z,11.30
2018-10-05T23:56:12.242Z,11.20
2018-10-05T23:58:40.177Z,11.10
